sensor_id;sensor_type;location;lat;lon;timestamp;pressure;altitude;pressure_sealevel;temperature;humidity
81545;BME280;70990;50.618;7.346;2023-09-19T00:01:25;97604.53;;;14.91;81.52
81545;BME280;70990;50.618;7.346;2023-09-19T00:03:52;97608.09;;;14.92;80.12
81545;BME280;70990;50.618;7.346;2023-09-19T00:06:18;97614.38;;;14.83;79.31
81545;BME280;70990;50.618;7.346;2023-09-19T00:08:45;97608.63;;;14.78;78.62
81545;BME280;70990;50.618;7.346;2023-09-19T00:11:11;97626.72;;;14.82;78.47
81545;BME280;70990;50.618;7.346;2023-09-19T00:13:38;97616.69;;;14.85;78.32
81545;BME280;70990;50.618;7.346;2023-09-19T00:16:09;97627.47;;;14.74;78.72
81545;BME280;70990;50.618;7.346;2023-09-19T00:18:37;97629.78;;;14.75;78.62
81545;BME280;70990;50.618;7.346;2023-09-19T00:21:04;97625.81;;;14.55;78.94
81545;BME280;70990;50.618;7.346;2023-09-19T00:23:30;97633.59;;;14.69;78.35
81545;BME280;70990;50.618;7.346;2023-09-19T00:26:00;97623.22;;;14.60;78.30
81545;BME280;70990;50.618;7.346;2023-09-19T00:28:27;97628.13;;;14.56;78.68
81545;BME280;70990;50.618;7.346;2023-09-19T00:30:54;97636.06;;;14.67;78.15
81545;BME280;70990;50.618;7.346;2023-09-19T00:33:21;97628.97;;;14.66;78.37
81545;BME280;70990;50.618;7.346;2023-09-19T00:35:54;97627.34;;;14.56;79.18
81545;BME280;70990;50.618;7.346;2023-09-19T00:38:21;97636.78;;;14.58;78.69
81545;BME280;70990;50.618;7.346;2023-09-19T00:40:49;97633.56;;;14.60;79.06
81545;BME280;70990;50.618;7.346;2023-09-19T00:43:15;97635.38;;;14.53;78.71
81545;BME280;70990;50.618;7.346;2023-09-19T00:45:44;97634.97;;;14.64;78.60
81545;BME280;70990;50.618;7.346;2023-09-19T00:48:11;97635.88;;;14.39;79.38
81545;BME280;70990;50.618;7.346;2023-09-19T00:50:41;97636.53;;;14.43;78.95
81545;BME280;70990;50.618;7.346;2023-09-19T00:53:08;97645.97;;;14.46;78.91
81545;BME280;70990;50.618;7.346;2023-09-19T00:55:36;97641.38;;;14.52;79.06
81545;BME280;70990;50.618;7.346;2023-09-19T00:58:03;97638.84;;;14.45;79.59
81545;BME280;70990;50.618;7.346;2023-09-19T01:00:30;97636.28;;;14.50;78.95
81545;BME280;70990;50.618;7.346;2023-09-19T01:02:57;97644.59;;;14.50;79.35
81545;BME280;70990;50.618;7.346;2023-09-19T01:05:24;97651.78;;;14.39;79.32
81545;BME280;70990;50.618;7.346;2023-09-19T01:07:50;97649.19;;;14.44;79.39
81545;BME280;70990;50.618;7.346;2023-09-19T01:10:19;97663.09;;;14.44;79.76
81545;BME280;70990;50.618;7.346;2023-09-19T01:12:53;97661.00;;;14.48;80.50
81545;BME280;70990;50.618;7.346;2023-09-19T01:21:08;97671.13;;;14.64;79.37
81545;BME280;70990;50.618;7.346;2023-09-19T01:24:14;97671.72;;;14.59;80.06
81545;BME280;70990;50.618;7.346;2023-09-19T01:29:39;97676.34;;;14.62;79.40
81545;BME280;70990;50.618;7.346;2023-09-19T01:32:08;97674.31;;;14.53;79.96
81545;BME280;70990;50.618;7.346;2023-09-19T01:34:56;97677.84;;;14.54;80.20
81545;BME280;70990;50.618;7.346;2023-09-19T01:37:23;97688.84;;;14.58;78.73
81545;BME280;70990;50.618;7.346;2023-09-19T01:40:07;97683.59;;;14.60;78.03
81545;BME280;70990;50.618;7.346;2023-09-19T01:42:45;97686.84;;;14.58;77.32
81545;BME280;70990;50.618;7.346;2023-09-19T01:48:35;97702.22;;;14.72;75.39
81545;BME280;70990;50.618;7.346;2023-09-19T01:51:14;97693.56;;;14.70;75.39
81545;BME280;70990;50.618;7.346;2023-09-19T01:53:51;97705.19;;;14.56;74.50
81545;BME280;70990;50.618;7.346;2023-09-19T01:56:32;97697.75;;;14.52;75.30
81545;BME280;70990;50.618;7.346;2023-09-19T01:59:07;97693.88;;;14.50;74.25
81545;BME280;70990;50.618;7.346;2023-09-19T02:01:36;97708.94;;;14.40;74.82
81545;BME280;70990;50.618;7.346;2023-09-19T02:04:04;97708.25;;;14.48;73.70
81545;BME280;70990;50.618;7.346;2023-09-19T02:06:31;97708.94;;;14.40;74.09
81545;BME280;70990;50.618;7.346;2023-09-19T02:08:58;97712.94;;;14.39;73.40
81545;BME280;70990;50.618;7.346;2023-09-19T02:11:25;97709.16;;;14.33;74.16
81545;BME280;70990;50.618;7.346;2023-09-19T02:13:52;97712.63;;;14.24;72.91
81545;BME280;70990;50.618;7.346;2023-09-19T02:16:19;97717.53;;;14.20;73.09
81545;BME280;70990;50.618;7.346;2023-09-19T02:18:46;97713.41;;;14.25;73.59
81545;BME280;70990;50.618;7.346;2023-09-19T02:21:13;97727.78;;;14.23;73.28
81545;BME280;70990;50.618;7.346;2023-09-19T02:23:40;97722.75;;;14.18;73.14
81545;BME280;70990;50.618;7.346;2023-09-19T02:26:07;97733.66;;;14.12;73.18
81545;BME280;70990;50.618;7.346;2023-09-19T02:28:34;97732.66;;;14.19;73.12
81545;BME280;70990;50.618;7.346;2023-09-19T02:31:01;97737.16;;;14.04;73.89
81545;BME280;70990;50.618;7.346;2023-09-19T02:33:28;97733.13;;;14.18;74.42
81545;BME280;70990;50.618;7.346;2023-09-19T02:35:55;97743.13;;;14.15;74.30
81545;BME280;70990;50.618;7.346;2023-09-19T02:38:22;97740.13;;;14.09;74.37
81545;BME280;70990;50.618;7.346;2023-09-19T02:40:49;97748.59;;;13.93;74.80
81545;BME280;70990;50.618;7.346;2023-09-19T02:43:16;97741.50;;;14.05;74.85
81545;BME280;70990;50.618;7.346;2023-09-19T02:45:43;97739.16;;;14.03;74.75
81545;BME280;70990;50.618;7.346;2023-09-19T02:48:09;97738.72;;;14.05;74.25
81545;BME280;70990;50.618;7.346;2023-09-19T02:50:36;97748.81;;;14.11;74.56
81545;BME280;70990;50.618;7.346;2023-09-19T02:53:03;97744.13;;;14.08;75.59
81545;BME280;70990;50.618;7.346;2023-09-19T02:55:29;97744.13;;;14.08;76.11
81545;BME280;70990;50.618;7.346;2023-09-19T02:57:56;97745.50;;;14.04;75.62
81545;BME280;70990;50.618;7.346;2023-09-19T03:00:23;97743.75;;;13.85;76.61
81545;BME280;70990;50.618;7.346;2023-09-19T03:02:55;97749.81;;;14.05;75.87
81545;BME280;70990;50.618;7.346;2023-09-19T03:05:23;97754.72;;;13.88;76.63
81545;BME280;70990;50.618;7.346;2023-09-19T03:07:50;97747.16;;;13.89;76.78
81545;BME280;70990;50.618;7.346;2023-09-19T03:10:19;97753.16;;;14.00;76.06
81545;BME280;70990;50.618;7.346;2023-09-19T03:12:47;97758.50;;;13.82;77.39
81545;BME280;70990;50.618;7.346;2023-09-19T03:15:14;97761.41;;;13.91;77.24
81545;BME280;70990;50.618;7.346;2023-09-19T03:17:44;97756.72;;;13.88;77.63
81545;BME280;70990;50.618;7.346;2023-09-19T03:20:11;97760.50;;;13.81;78.03
81545;BME280;70990;50.618;7.346;2023-09-19T03:22:38;97764.28;;;13.74;77.92
81545;BME280;70990;50.618;7.346;2023-09-19T03:25:07;97751.66;;;13.73;78.30
81545;BME280;70990;50.618;7.346;2023-09-19T03:27:38;97771.63;;;13.68;78.82
81545;BME280;70990;50.618;7.346;2023-09-19T03:30:07;97769.03;;;13.87;78.13
81545;BME280;70990;50.618;7.346;2023-09-19T03:32:37;97776.50;;;13.64;79.58
81545;BME280;70990;50.618;7.346;2023-09-19T03:35:05;97778.16;;;13.62;79.49
81545;BME280;70990;50.618;7.346;2023-09-19T03:37:32;97786.75;;;13.67;79.31
81545;BME280;70990;50.618;7.346;2023-09-19T03:39:58;97783.97;;;13.55;79.85
81545;BME280;70990;50.618;7.346;2023-09-19T03:42:25;97777.50;;;13.58;79.58
81545;BME280;70990;50.618;7.346;2023-09-19T03:44:53;97782.06;;;13.64;79.44
81545;BME280;70990;50.618;7.346;2023-09-19T03:47:19;97784.19;;;13.48;79.79
81545;BME280;70990;50.618;7.346;2023-09-19T03:49:46;97783.63;;;13.65;78.98
81545;BME280;70990;50.618;7.346;2023-09-19T03:52:13;97785.97;;;13.67;79.37
81545;BME280;70990;50.618;7.346;2023-09-19T03:54:40;97783.97;;;13.67;78.92
81545;BME280;70990;50.618;7.346;2023-09-19T03:57:07;97783.19;;;13.54;80.00
81545;BME280;70990;50.618;7.346;2023-09-19T03:59:33;97774.84;;;13.54;80.33
81545;BME280;70990;50.618;7.346;2023-09-19T04:02:00;97779.84;;;13.59;79.70
81545;BME280;70990;50.618;7.346;2023-09-19T04:04:26;97787.16;;;13.53;80.40
81545;BME280;70990;50.618;7.346;2023-09-19T04:06:53;97787.28;;;13.62;79.59
81545;BME280;70990;50.618;7.346;2023-09-19T04:09:22;97788.19;;;13.59;79.89
81545;BME280;70990;50.618;7.346;2023-09-19T04:11:48;97789.59;;;13.51;80.14
81545;BME280;70990;50.618;7.346;2023-09-19T04:14:15;97784.63;;;13.46;80.12
81545;BME280;70990;50.618;7.346;2023-09-19T04:16:42;97791.28;;;13.49;80.82
81545;BME280;70990;50.618;7.346;2023-09-19T04:19:09;97787.94;;;13.41;80.43
81545;BME280;70990;50.618;7.346;2023-09-19T04:21:35;97789.59;;;13.51;79.77
81545;BME280;70990;50.618;7.346;2023-09-19T04:24:02;97790.69;;;13.28;80.61
81545;BME280;70990;50.618;7.346;2023-09-19T04:26:30;97786.59;;;13.46;79.62
81545;BME280;70990;50.618;7.346;2023-09-19T04:28:57;97783.72;;;13.37;79.39
81545;BME280;70990;50.618;7.346;2023-09-19T04:31:23;97790.16;;;13.46;79.35
81545;BME280;70990;50.618;7.346;2023-09-19T04:33:50;97794.06;;;13.61;78.41
81545;BME280;70990;50.618;7.346;2023-09-19T04:36:16;97785.41;;;13.59;78.66
81545;BME280;70990;50.618;7.346;2023-09-19T04:39:00;97794.28;;;13.67;77.96
81545;BME280;70990;50.618;7.346;2023-09-19T04:41:28;97793.38;;;13.57;78.09
81545;BME280;70990;50.618;7.346;2023-09-19T04:43:54;97794.72;;;13.53;78.32
81545;BME280;70990;50.618;7.346;2023-09-19T04:46:21;97796.84;;;13.49;78.60
81545;BME280;70990;50.618;7.346;2023-09-19T04:48:48;97802.06;;;13.59;78.96
81545;BME280;70990;50.618;7.346;2023-09-19T04:51:15;97797.81;;;13.42;79.39
81545;BME280;70990;50.618;7.346;2023-09-19T04:53:41;97792.94;;;13.59;79.22
81545;BME280;70990;50.618;7.346;2023-09-19T04:56:08;97785.72;;;13.49;79.72
81545;BME280;70990;50.618;7.346;2023-09-19T04:58:34;97789.03;;;13.31;80.33
81545;BME280;70990;50.618;7.346;2023-09-19T05:01:01;97789.81;;;13.44;80.17
81545;BME280;70990;50.618;7.346;2023-09-19T05:03:28;97799.59;;;13.36;80.10
81545;BME280;70990;50.618;7.346;2023-09-19T05:05:55;97805.81;;;13.40;79.62
81545;BME280;70990;50.618;7.346;2023-09-19T05:08:21;97804.56;;;13.28;79.84
81545;BME280;70990;50.618;7.346;2023-09-19T05:10:48;97798.59;;;13.30;79.65
81545;BME280;70990;50.618;7.346;2023-09-19T05:13:14;97806.00;;;13.33;79.59
81545;BME280;70990;50.618;7.346;2023-09-19T05:15:41;97800.00;;;13.22;79.91
81545;BME280;70990;50.618;7.346;2023-09-19T05:18:07;97800.22;;;13.15;80.00
81545;BME280;70990;50.618;7.346;2023-09-19T05:20:34;97808.88;;;13.17;79.71
81545;BME280;70990;50.618;7.346;2023-09-19T05:23:03;97809.34;;;13.28;79.52
81545;BME280;70990;50.618;7.346;2023-09-19T05:25:31;97812.97;;;13.25;79.52
81545;BME280;70990;50.618;7.346;2023-09-19T05:27:59;97814.91;;;13.12;79.94
81545;BME280;70990;50.618;7.346;2023-09-19T05:30:26;97820.84;;;13.14;79.53
81545;BME280;70990;50.618;7.346;2023-09-19T05:32:53;97820.84;;;13.14;79.51
81545;BME280;70990;50.618;7.346;2023-09-19T05:35:20;97827.75;;;13.22;78.77
81545;BME280;70990;50.618;7.346;2023-09-19T05:37:47;97823.53;;;13.01;79.64
81545;BME280;70990;50.618;7.346;2023-09-19T05:40:14;97830.72;;;13.15;79.54
81545;BME280;70990;50.618;7.346;2023-09-19T05:42:41;97829.50;;;13.16;79.64
81545;BME280;70990;50.618;7.346;2023-09-19T05:45:08;97841.28;;;13.20;79.28
81545;BME280;70990;50.618;7.346;2023-09-19T05:47:35;97840.59;;;13.16;79.51
81545;BME280;70990;50.618;7.346;2023-09-19T05:50:01;97846.44;;;13.05;79.96
81545;BME280;70990;50.618;7.346;2023-09-19T05:52:28;97845.91;;;13.10;79.56
81545;BME280;70990;50.618;7.346;2023-09-19T05:54:54;97857.78;;;13.11;79.64
81545;BME280;70990;50.618;7.346;2023-09-19T05:57:21;97863.75;;;13.09;78.68
81545;BME280;70990;50.618;7.346;2023-09-19T05:59:47;97865.59;;;13.00;78.98
81545;BME280;70990;50.618;7.346;2023-09-19T06:02:14;97864.91;;;12.96;78.99
81545;BME280;70990;50.618;7.346;2023-09-19T06:04:43;97865.78;;;12.92;79.40
81545;BME280;70990;50.618;7.346;2023-09-19T06:07:10;97868.81;;;12.98;78.54
81545;BME280;70990;50.618;7.346;2023-09-19T06:09:36;97865.38;;;13.07;78.38
81545;BME280;70990;50.618;7.346;2023-09-19T06:12:03;97867.84;;;13.05;77.93
81545;BME280;70990;50.618;7.346;2023-09-19T06:14:33;97867.63;;;13.12;76.57
81545;BME280;70990;50.618;7.346;2023-09-19T06:17:00;97881.69;;;13.21;77.13
81545;BME280;70990;50.618;7.346;2023-09-19T06:19:26;97867.81;;;13.21;76.80
81545;BME280;70990;50.618;7.346;2023-09-19T06:21:53;97882.81;;;13.23;77.00
81545;BME280;70990;50.618;7.346;2023-09-19T06:24:19;97882.34;;;13.25;76.71
81545;BME280;70990;50.618;7.346;2023-09-19T06:26:46;97887.72;;;13.32;75.78
81545;BME280;70990;50.618;7.346;2023-09-19T06:29:13;97896.25;;;13.38;75.92
81545;BME280;70990;50.618;7.346;2023-09-19T06:31:39;97905.09;;;13.20;77.16
81545;BME280;70990;50.618;7.346;2023-09-19T06:34:06;97899.13;;;13.21;76.66
81545;BME280;70990;50.618;7.346;2023-09-19T06:36:33;97904.03;;;13.30;76.64
81545;BME280;70990;50.618;7.346;2023-09-19T06:38:59;97909.31;;;13.24;75.89
81545;BME280;70990;50.618;7.346;2023-09-19T06:41:26;97916.25;;;13.32;75.84
81545;BME280;70990;50.618;7.346;2023-09-19T06:43:52;97918.19;;;13.48;76.28
81545;BME280;70990;50.618;7.346;2023-09-19T06:46:20;97921.41;;;13.47;75.94
81545;BME280;70990;50.618;7.346;2023-09-19T06:48:46;97915.25;;;13.39;75.57
81545;BME280;70990;50.618;7.346;2023-09-19T06:51:13;97927.34;;;13.32;76.20
81545;BME280;70990;50.618;7.346;2023-09-19T06:53:40;97934.81;;;13.36;76.04
81545;BME280;70990;50.618;7.346;2023-09-19T06:56:08;97921.00;;;13.32;75.18
81545;BME280;70990;50.618;7.346;2023-09-19T06:58:34;97933.53;;;13.24;75.79
81545;BME280;70990;50.618;7.346;2023-09-19T07:01:01;97930.34;;;13.38;75.89
81545;BME280;70990;50.618;7.346;2023-09-19T07:03:27;97936.09;;;13.31;76.30
81545;BME280;70990;50.618;7.346;2023-09-19T07:05:54;97941.13;;;13.36;76.30
81545;BME280;70990;50.618;7.346;2023-09-19T07:08:21;97935.41;;;13.56;75.60
81545;BME280;70990;50.618;7.346;2023-09-19T07:10:48;97945.06;;;13.51;75.41
81545;BME280;70990;50.618;7.346;2023-09-19T07:13:16;97941.72;;;13.56;75.78
81545;BME280;70990;50.618;7.346;2023-09-19T07:15:44;97951.78;;;13.66;75.81
81545;BME280;70990;50.618;7.346;2023-09-19T07:18:10;97961.66;;;13.67;75.42
81545;BME280;70990;50.618;7.346;2023-09-19T07:20:38;97944.00;;;13.61;75.72
81545;BME280;70990;50.618;7.346;2023-09-19T07:23:04;97947.44;;;13.65;75.54
81545;BME280;70990;50.618;7.346;2023-09-19T07:25:31;97946.31;;;13.63;74.28
81545;BME280;70990;50.618;7.346;2023-09-19T07:27:58;97937.94;;;13.79;74.73
81545;BME280;70990;50.618;7.346;2023-09-19T07:30:26;97944.25;;;13.80;74.91
81545;BME280;70990;50.618;7.346;2023-09-19T07:32:53;97939.75;;;13.98;74.48
81545;BME280;70990;50.618;7.346;2023-09-19T07:35:20;97929.38;;;13.73;74.19
81545;BME280;70990;50.618;7.346;2023-09-19T07:37:47;97939.78;;;13.69;72.72
81545;BME280;70990;50.618;7.346;2023-09-19T07:40:15;97929.25;;;13.77;74.21
81545;BME280;70990;50.618;7.346;2023-09-19T07:42:42;97938.47;;;13.74;73.63
81545;BME280;70990;50.618;7.346;2023-09-19T07:45:09;97939.69;;;13.73;73.11
81545;BME280;70990;50.618;7.346;2023-09-19T07:47:35;97934.69;;;13.81;72.78
81545;BME280;70990;50.618;7.346;2023-09-19T07:50:02;97930.47;;;13.89;73.18
81545;BME280;70990;50.618;7.346;2023-09-19T07:52:29;97932.94;;;14.25;72.72
81545;BME280;70990;50.618;7.346;2023-09-19T07:54:56;97939.50;;;14.18;72.41
81545;BME280;70990;50.618;7.346;2023-09-19T07:57:22;97935.72;;;14.12;72.27
81545;BME280;70990;50.618;7.346;2023-09-19T07:59:49;97929.94;;;14.19;72.26
81545;BME280;70990;50.618;7.346;2023-09-19T08:02:16;97930.44;;;14.30;71.04
81545;BME280;70990;50.618;7.346;2023-09-19T08:04:43;97936.63;;;14.22;72.54
81545;BME280;70990;50.618;7.346;2023-09-19T08:07:09;97945.06;;;14.18;71.39
81545;BME280;70990;50.618;7.346;2023-09-19T08:09:36;97941.84;;;14.32;70.95
81545;BME280;70990;50.618;7.346;2023-09-19T08:12:03;97941.78;;;14.48;70.40
81545;BME280;70990;50.618;7.346;2023-09-19T08:14:32;97946.56;;;14.61;70.12
81545;BME280;70990;50.618;7.346;2023-09-19T08:16:59;97950.56;;;14.47;68.83
81545;BME280;70990;50.618;7.346;2023-09-19T08:19:26;97951.22;;;14.64;70.12
81545;BME280;70990;50.618;7.346;2023-09-19T08:21:53;97954.34;;;14.66;69.25
81545;BME280;70990;50.618;7.346;2023-09-19T08:24:19;97954.78;;;14.51;69.22
81545;BME280;70990;50.618;7.346;2023-09-19T08:26:46;97956.78;;;14.51;68.68
81545;BME280;70990;50.618;7.346;2023-09-19T08:29:12;97951.22;;;14.64;69.40
81545;BME280;70990;50.618;7.346;2023-09-19T08:31:39;97970.00;;;14.85;68.66
81545;BME280;70990;50.618;7.346;2023-09-19T08:34:05;97970.31;;;14.87;68.84
81545;BME280;70990;50.618;7.346;2023-09-19T08:36:32;97968.28;;;15.00;67.52
81545;BME280;70990;50.618;7.346;2023-09-19T08:38:59;97969.94;;;15.10;67.70
81545;BME280;70990;50.618;7.346;2023-09-19T08:41:25;97975.59;;;15.19;68.17
81545;BME280;70990;50.618;7.346;2023-09-19T08:43:52;97979.72;;;15.15;67.65
81545;BME280;70990;50.618;7.346;2023-09-19T08:46:20;97961.09;;;15.24;67.03
81545;BME280;70990;50.618;7.346;2023-09-19T08:52:41;97976.31;;;15.32;65.47
81545;BME280;70990;50.618;7.346;2023-09-19T08:55:12;97984.22;;;15.34;66.82
81545;BME280;70990;50.618;7.346;2023-09-19T08:57:38;97986.72;;;15.19;64.68
81545;BME280;70990;50.618;7.346;2023-09-19T09:00:08;97977.47;;;15.22;64.83
81545;BME280;70990;50.618;7.346;2023-09-19T09:02:37;97974.53;;;15.39;64.92
81545;BME280;70990;50.618;7.346;2023-09-19T09:05:05;97991.44;;;15.44;65.76
81545;BME280;70990;50.618;7.346;2023-09-19T09:07:32;97976.59;;;15.60;63.43
81545;BME280;70990;50.618;7.346;2023-09-19T09:10:00;97986.53;;;15.48;63.98
81545;BME280;70990;50.618;7.346;2023-09-19T09:12:29;97978.94;;;15.49;63.88
81545;BME280;70990;50.618;7.346;2023-09-19T09:14:56;97988.56;;;15.35;63.51
81545;BME280;70990;50.618;7.346;2023-09-19T09:17:23;97984.78;;;15.42;63.40
81545;BME280;70990;50.618;7.346;2023-09-19T09:19:53;97981.03;;;15.57;64.04
81545;BME280;70990;50.618;7.346;2023-09-19T09:22:21;97974.06;;;15.53;63.46
81545;BME280;70990;50.618;7.346;2023-09-19T09:24:54;97990.53;;;15.47;63.97
81545;BME280;70990;50.618;7.346;2023-09-19T09:27:21;97984.44;;;15.40;62.94
81545;BME280;70990;50.618;7.346;2023-09-19T09:29:48;97987.59;;;15.63;63.37
81545;BME280;70990;50.618;7.346;2023-09-19T09:34:58;97966.63;;;15.71;62.85
81545;BME280;70990;50.618;7.346;2023-09-19T09:37:30;97973.69;;;15.51;61.85
81545;BME280;70990;50.618;7.346;2023-09-19T09:40:04;97978.41;;;15.76;62.18
81545;BME280;70990;50.618;7.346;2023-09-19T09:42:35;97977.88;;;15.90;61.67
81545;BME280;70990;50.618;7.346;2023-09-19T09:45:22;97978.19;;;16.13;62.42
81545;BME280;70990;50.618;7.346;2023-09-19T09:47:49;97976.16;;;16.14;61.56
81545;BME280;70990;50.618;7.346;2023-09-19T09:50:33;97966.06;;;16.07;62.14
81545;BME280;70990;50.618;7.346;2023-09-19T09:53:01;97962.91;;;16.27;61.74
81545;BME280;70990;50.618;7.346;2023-09-19T09:55:27;97964.28;;;16.23;60.76
81545;BME280;70990;50.618;7.346;2023-09-19T09:58:16;97970.75;;;16.41;63.07
81545;BME280;70990;50.618;7.346;2023-09-19T10:00:53;97971.00;;;16.34;60.46
81545;BME280;70990;50.618;7.346;2023-09-19T10:03:19;97967.13;;;16.32;60.89
81545;BME280;70990;50.618;7.346;2023-09-19T10:05:53;97963.88;;;16.64;60.10
81545;BME280;70990;50.618;7.346;2023-09-19T10:08:20;97955.38;;;16.77;59.14
81545;BME280;70990;50.618;7.346;2023-09-19T10:10:47;97957.91;;;16.53;57.25
81545;BME280;70990;50.618;7.346;2023-09-19T10:13:14;97949.47;;;16.66;59.36
81545;BME280;70990;50.618;7.346;2023-09-19T10:15:46;97958.00;;;16.71;58.71
81545;BME280;70990;50.618;7.346;2023-09-19T10:18:14;97950.13;;;16.88;59.32
81545;BME280;70990;50.618;7.346;2023-09-19T10:20:41;97941.31;;;16.89;57.47
81545;BME280;70990;50.618;7.346;2023-09-19T10:23:12;97953.72;;;16.88;56.97
81545;BME280;70990;50.618;7.346;2023-09-19T10:25:39;97954.31;;;16.83;57.05
81545;BME280;70990;50.618;7.346;2023-09-19T10:28:12;97943.47;;;16.85;56.51
81545;BME280;70990;50.618;7.346;2023-09-19T10:30:46;97946.34;;;16.64;57.46
81545;BME280;70990;50.618;7.346;2023-09-19T10:33:15;97945.38;;;16.58;57.88
81545;BME280;70990;50.618;7.346;2023-09-19T10:35:46;97956.50;;;16.79;56.29
81545;BME280;70990;50.618;7.346;2023-09-19T10:38:16;97954.94;;;16.87;56.38
81545;BME280;70990;50.618;7.346;2023-09-19T10:40:49;97945.91;;;16.65;57.88
81545;BME280;70990;50.618;7.346;2023-09-19T10:43:17;97951.94;;;16.64;56.71
81545;BME280;70990;50.618;7.346;2023-09-19T10:45:45;97935.78;;;17.17;57.07
81545;BME280;70990;50.618;7.346;2023-09-19T10:48:13;97942.47;;;17.65;57.90
81545;BME280;70990;50.618;7.346;2023-09-19T10:50:46;97945.38;;;17.43;55.07
81545;BME280;70990;50.618;7.346;2023-09-19T10:53:16;97943.22;;;17.38;55.05
81545;BME280;70990;50.618;7.346;2023-09-19T10:55:50;97943.69;;;17.46;54.23
81545;BME280;70990;50.618;7.346;2023-09-19T10:58:31;97951.78;;;17.80;54.36
81545;BME280;70990;50.618;7.346;2023-09-19T11:00:58;97934.22;;;17.80;52.28
81545;BME280;70990;50.618;7.346;2023-09-19T11:03:25;97936.22;;;17.88;52.91
81545;BME280;70990;50.618;7.346;2023-09-19T11:30:34;97937.31;;;17.82;52.56
81545;BME280;70990;50.618;7.346;2023-09-19T11:36:12;97939.50;;;17.50;50.73
81545;BME280;70990;50.618;7.346;2023-09-19T11:46:27;97935.16;;;17.77;50.42
81545;BME280;70990;50.618;7.346;2023-09-19T11:48:54;97922.72;;;17.68;52.38
81545;BME280;70990;50.618;7.346;2023-09-19T11:51:22;97934.59;;;18.24;51.36
81545;BME280;70990;50.618;7.346;2023-09-19T11:53:50;97947.25;;;17.92;50.92
81545;BME280;70990;50.618;7.346;2023-09-19T11:56:19;97936.72;;;17.41;51.53
81545;BME280;70990;50.618;7.346;2023-09-19T11:58:48;97939.66;;;17.28;52.11
81545;BME280;70990;50.618;7.346;2023-09-19T12:01:22;97954.69;;;17.22;53.00
81545;BME280;70990;50.618;7.346;2023-09-19T12:03:53;97946.94;;;17.26;52.02
81545;BME280;70990;50.618;7.346;2023-09-19T12:06:20;97960.91;;;17.44;51.10
81545;BME280;70990;50.618;7.346;2023-09-19T12:08:46;97948.34;;;17.40;50.71
81545;BME280;70990;50.618;7.346;2023-09-19T12:11:14;97951.28;;;17.82;51.09
81545;BME280;70990;50.618;7.346;2023-09-19T12:13:45;97948.97;;;18.40;49.78
81545;BME280;70990;50.618;7.346;2023-09-19T12:16:17;97949.56;;;18.44;49.07
81545;BME280;70990;50.618;7.346;2023-09-19T12:18:44;97957.44;;;18.22;48.53
81545;BME280;70990;50.618;7.346;2023-09-19T12:21:29;97941.56;;;18.19;49.09
81545;BME280;70990;50.618;7.346;2023-09-19T12:26:27;97950.31;;;18.87;48.23
81545;BME280;70990;50.618;7.346;2023-09-19T12:28:55;97955.81;;;19.29;47.58
81545;BME280;70990;50.618;7.346;2023-09-19T12:31:22;97949.84;;;19.60;48.47
81545;BME280;70990;50.618;7.346;2023-09-19T12:33:53;97934.56;;;19.37;47.45
81545;BME280;70990;50.618;7.346;2023-09-19T12:36:23;97938.38;;;19.10;47.21
81545;BME280;70990;50.618;7.346;2023-09-19T12:38:50;97946.84;;;19.40;46.95
81545;BME280;70990;50.618;7.346;2023-09-19T12:41:16;97939.72;;;19.15;48.47
81545;BME280;70990;50.618;7.346;2023-09-19T12:43:44;97932.09;;;19.92;47.70
81545;BME280;70990;50.618;7.346;2023-09-19T12:46:11;97929.75;;;20.05;48.38
81545;BME280;70990;50.618;7.346;2023-09-19T12:49:19;97932.28;;;19.89;46.73
81545;BME280;70990;50.618;7.346;2023-09-19T12:51:47;97921.06;;;19.89;46.29
81545;BME280;70990;50.618;7.346;2023-09-19T12:54:13;97932.50;;;19.47;46.28
81545;BME280;70990;50.618;7.346;2023-09-19T12:56:41;97926.00;;;19.79;46.31
81545;BME280;70990;50.618;7.346;2023-09-19T12:59:09;97912.81;;;20.44;46.07
81545;BME280;70990;50.618;7.346;2023-09-19T13:01:35;97914.88;;;19.85;45.71
81545;BME280;70990;50.618;7.346;2023-09-19T13:04:17;97910.91;;;20.35;45.42
81545;BME280;70990;50.618;7.346;2023-09-19T13:06:44;97915.66;;;19.85;46.51
81545;BME280;70990;50.618;7.346;2023-09-19T13:09:11;97907.47;;;20.31;45.23
81545;BME280;70990;50.618;7.346;2023-09-19T13:11:39;97912.59;;;20.82;43.91
81545;BME280;70990;50.618;7.346;2023-09-19T13:14:23;97918.81;;;20.07;44.35
81545;BME280;70990;50.618;7.346;2023-09-19T13:22:44;97912.56;;;19.45;47.53
81545;BME280;70990;50.618;7.346;2023-09-19T13:25:20;97907.78;;;19.74;47.00
81545;BME280;70990;50.618;7.346;2023-09-19T13:27:49;97916.00;;;20.37;45.54
81545;BME280;70990;50.618;7.346;2023-09-19T13:30:16;97909.34;;;19.90;47.71
81545;BME280;70990;50.618;7.346;2023-09-19T13:32:43;97912.97;;;20.55;46.03
81545;BME280;70990;50.618;7.346;2023-09-19T13:35:10;97909.72;;;20.77;46.04
81545;BME280;70990;50.618;7.346;2023-09-19T13:37:41;97888.44;;;20.21;44.84
81545;BME280;70990;50.618;7.346;2023-09-19T13:40:09;97889.28;;;20.27;45.75
81545;BME280;70990;50.618;7.346;2023-09-19T13:42:36;97884.84;;;20.70;44.60
81545;BME280;70990;50.618;7.346;2023-09-19T13:45:04;97886.97;;;20.40;43.88
81545;BME280;70990;50.618;7.346;2023-09-19T13:47:31;97887.03;;;20.60;45.21
81545;BME280;70990;50.618;7.346;2023-09-19T13:50:02;97881.56;;;20.71;43.51
81545;BME280;70990;50.618;7.346;2023-09-19T13:52:29;97892.25;;;20.67;44.61
81545;BME280;70990;50.618;7.346;2023-09-19T13:54:56;97883.03;;;20.67;43.68
81545;BME280;70990;50.618;7.346;2023-09-19T13:57:24;97881.19;;;20.64;45.33
81545;BME280;70990;50.618;7.346;2023-09-19T13:59:51;97879.47;;;20.66;44.46
81545;BME280;70990;50.618;7.346;2023-09-19T14:02:19;97882.53;;;20.68;43.73
81545;BME280;70990;50.618;7.346;2023-09-19T14:04:46;97881.44;;;21.41;42.53
81545;BME280;70990;50.618;7.346;2023-09-19T14:07:12;97873.81;;;20.46;44.33
81545;BME280;70990;50.618;7.346;2023-09-19T14:09:39;97871.69;;;20.11;44.77